Time;durP1;ratioP1;P1;durP2;ratioP2;P2;SDS_P1;SDS_P2;PMS_P1;PMS_P2;Temp;Humidity;BMP_temperature;BMP_pressure;BME280_temperature;BME280_humidity;BME280_pressure;Samples;Min_cycle;Max_cycle;Signal;HPM_P1;HPM_P2
2022/12/24 00:01:31;;;;;;;62.53;36.53;;;;;;;3.43;100.00;38496.81;5071103;28;20180;-64
2022/12/24 00:03:58;;;;;;;69.80;37.17;;;;;;;3.40;100.00;36578.16;5071087;28;20202;-64
2022/12/24 00:06:25;;;;;;;69.30;37.33;;;;;;;3.41;100.00;35301.69;5071467;28;20528;-65
2022/12/24 00:08:52;;;;;;;70.83;36.57;;;;;;;3.33;100.00;35616.16;5071199;28;20188;-64
2022/12/24 00:11:21;;;;;;;68.87;36.70;;;;;;;3.20;100.00;34969.94;5071016;28;20185;-64
2022/12/24 00:13:48;;;;;;;70.00;37.27;;;;;;;3.21;100.00;29231.81;5071374;28;20189;-64
2022/12/24 00:16:15;;;;;;;59.60;36.83;;;;;;;3.10;100.00;28589.06;5071311;28;20273;-64
2022/12/24 00:18:42;;;;;;;67.73;37.30;;;;;;;3.29;100.00;27643.25;5071002;28;20189;-64
2022/12/24 00:21:09;;;;;;;60.20;36.17;;;;;;;3.36;100.00;25099.75;5070070;28;20545;-64
2022/12/24 00:23:36;;;;;;;70.47;35.77;;;;;;;3.30;100.00;27961.97;5070987;28;20196;-64
2022/12/24 00:26:03;;;;;;;66.93;37.83;;;;;;;3.28;100.00;30190.88;5071203;28;20282;-65
2022/12/24 00:28:31;;;;;;;63.43;35.77;;;;;;;3.29;100.00;30510.09;5073294;28;20239;-64
2022/12/24 00:30:58;;;;;;;67.43;37.07;;;;;;;3.41;100.00;27012.38;5075000;28;20208;-64
2022/12/24 00:33:25;;;;;;;60.27;35.60;;;;;;;3.50;100.00;25106.25;5074894;28;20195;-65
2022/12/24 00:35:52;;;;;;;55.63;35.87;;;;;;;3.26;100.00;26368.06;5075189;28;20567;-65
2022/12/24 00:38:19;;;;;;;62.07;34.43;;;;;;;3.33;100.00;24143.88;5075066;28;20683;-64
2022/12/24 00:40:46;;;;;;;55.53;31.37;;;;;;;3.09;100.00;30181.03;5075286;28;20181;-65
2022/12/24 00:43:13;;;;;;;60.70;31.90;;;;;;;3.17;100.00;30822.41;5075116;28;20650;-65
2022/12/24 00:45:41;;;;;;;56.80;31.27;;;;;;;3.19;100.00;29867.59;5075123;28;20314;-64
2022/12/24 00:48:08;;;;;;;52.87;31.57;;;;;;;3.35;100.00;26054.09;5074942;28;20192;-65
2022/12/24 00:50:35;;;;;;;59.53;33.80;;;;;;;3.43;100.00;22557.91;5075095;28;20188;-65
2022/12/24 00:53:02;;;;;;;67.20;36.93;;;;;;;3.28;100.00;22551.56;5074915;28;20652;-65
2022/12/24 00:55:29;;;;;;;65.20;34.73;;;;;;;3.46;100.00;20333.66;5074846;28;20192;-66
2022/12/24 00:57:56;;;;;;;54.80;30.17;;;;;;;3.37;100.00;21919.44;5074751;28;20212;-64
2022/12/24 01:00:23;;;;;;;69.37;38.20;;;;;;;3.41;100.00;22875.28;5074717;28;20624;-65
2022/12/24 01:02:51;;;;;;;72.97;41.70;;;;;;;3.58;100.00;19702.56;5074751;28;20185;-65
2022/12/24 01:05:19;;;;;;;62.07;36.27;;;;;;;3.46;100.00;23195.50;5074314;28;20188;-64
2022/12/24 01:07:47;;;;;;;60.00;32.53;;;;;;;3.55;100.00;22881.03;5074665;28;20596;-65
2022/12/24 01:10:16;;;;;;;51.97;32.30;;;;;;;3.57;100.00;24473.09;5074568;28;20193;-64
2022/12/24 01:12:43;;;;;;;61.70;35.00;;;;;;;3.48;100.00;27092.72;5074464;28;20666;-65
2022/12/24 01:15:11;;;;;;;68.70;39.60;;;;;;;3.51;100.00;26507.03;5074330;28;20549;-65
2022/12/24 01:17:39;;;;;;;65.57;37.43;;;;;;;3.54;100.00;24789.81;5074061;28;20308;-64
2022/12/24 01:20:13;;;;;;;62.90;34.83;;;;;;;3.56;100.00;24472.66;5074306;28;20567;-64
2022/12/24 01:22:39;;;;;;;63.60;34.47;;;;;;;3.57;100.00;24791.41;5073945;28;20196;-65
2022/12/24 01:25:07;;;;;;;54.57;33.10;;;;;;;3.36;100.00;27009.91;5074188;28;20193;-64
2022/12/24 01:27:34;;;;;;;58.27;32.07;;;;;;;3.41;100.00;26738.75;5073815;28;20253;-64
2022/12/24 01:30:01;;;;;;;51.57;31.97;;;;;;;3.44;100.00;27013.63;5073900;28;20188;-64
2022/12/24 01:32:28;;;;;;;59.13;33.10;;;;;;;3.31;100.00;26370.50;5073821;28;20185;-65
2022/12/24 01:34:54;;;;;;;109.13;55.03;;;;;;;3.40;100.00;23829.09;5073666;28;20563;-65
2022/12/24 01:37:23;;;;;;;115.33;60.20;;;;;;;3.56;100.00;20337.50;5074187;28;20224;-65
2022/12/24 01:39:50;;;;;;;91.63;48.77;;;;;;;3.55;100.00;19701.44;5074017;28;20592;-64
2022/12/24 01:45:41;;;;;;;130.13;69.03;;;;;;;3.60;100.00;16209.16;5073701;28;20179;-64
2022/12/24 01:48:16;;;;;;;127.43;62.37;;;;;;;3.63;100.00;14305.56;5073712;28;20177;-64
2022/12/24 01:50:43;;;;;;;135.53;69.83;;;;;;;3.74;100.00;13356.50;5073829;28;20630;-64
2022/12/24 01:53:14;;;;;;;124.77;64.50;;;;;;;3.86;100.00;12090.41;5073367;28;20191;-64
2022/12/24 01:55:41;;;;;;;131.77;68.40;;;;;;;3.95;100.00;11458.25;5073730;28;20185;-64
2022/12/24 01:58:11;;;;;;;134.47;71.03;;;;;;;3.95;100.00;11458.25;5073303;28;20205;-64
2022/12/24 02:00:37;;;;;;;130.90;69.17;;;;;;;3.98;100.00;10507.41;5073412;28;20267;-64
2022/12/24 02:03:05;;;;;;;128.63;69.33;;;;;;;4.08;100.00;9558.03;5073198;28;20188;-64
2022/12/24 02:05:37;;;;;;;118.97;61.53;;;;;;;4.13;100.00;8290.88;5073205;28;20195;-65
2022/12/24 02:08:05;;;;;;;112.67;59.47;;;;;;;4.28;100.00;7976.50;5073534;28;20185;-65
2022/12/24 02:10:33;;;;;;;114.80;60.43;;;;;;;4.35;100.00;8294.78;5072991;28;20185;-65
2022/12/24 02:13:02;;;;;;;107.17;57.67;;;;;;;4.38;100.00;10198.84;5073334;28;20196;-65
2022/12/24 02:15:36;;;;;;;106.23;56.47;;;;;;;4.30;100.00;13299.50;5073554;28;20644;-64
2022/12/24 02:18:12;;;;;;;102.43;55.23;;;;;;;4.40;100.00;17287.25;5073231;28;20655;-65
2022/12/24 02:21:14;;;;;;;101.60;52.37;;;;;;;4.31;100.00;21340.78;5073041;28;20196;-64
2022/12/24 02:24:02;;;;;;;93.43;50.50;;;;;;;4.32;100.00;22918.44;5073151;28;20199;-64
2022/12/24 02:26:52;;;;;;;89.30;49.27;;;;;;;4.32;100.00;23252.13;5072843;28;20188;-65
2022/12/24 02:29:38;;;;;;;92.13;48.67;;;;;;;4.35;100.00;21797.81;5073072;28;20195;-65
2022/12/24 02:32:12;;;;;;;89.17;48.77;;;;;;;4.36;100.00;21183.59;5072665;28;20188;-64
2022/12/24 02:34:45;;;;;;;95.07;48.60;;;;;;;4.36;100.00;21233.34;5071418;28;20184;-65
2022/12/24 02:37:18;;;;;;;88.83;47.57;;;;;;;4.37;100.00;21300.91;5073026;28;20272;-64
2022/12/24 02:39:50;;;;;;;90.33;47.30;;;;;;;4.36;100.00;19062.66;5073156;28;20184;-65
2022/12/24 02:42:21;;;;;;;81.63;47.03;;;;;;;4.21;100.00;16545.97;5072921;28;20192;-64
2022/12/24 02:44:51;;;;;;;86.33;47.23;;;;;;;4.01;100.00;15904.25;5072458;28;20185;-65
2022/12/24 02:47:23;;;;;;;82.77;46.23;;;;;;;4.29;100.00;14006.41;5072651;28;20188;-64
2022/12/24 02:49:50;;;;;;;85.17;46.03;;;;;;;4.33;100.00;12419.47;5072538;28;20181;-65
2022/12/24 02:52:34;;;;;;;77.27;44.67;;;;;;;4.33;100.00;14007.53;5072460;28;20184;-64
2022/12/24 02:55:04;;;;;;;79.63;43.53;;;;;;;4.21;100.00;18180.13;5072416;28;20195;-65
2022/12/24 02:57:44;;;;;;;81.80;44.80;;;;;;;4.26;100.00;20886.19;5072495;28;20702;-65
2022/12/24 03:00:15;;;;;;;77.17;43.00;;;;;;;4.11;100.00;23407.22;5072182;28;20185;-64
2022/12/24 03:03:00;;;;;;;77.97;44.63;;;;;;;4.06;100.00;23395.31;5072424;28;20660;-64
2022/12/24 03:05:34;;;;;;;79.07;43.37;;;;;;;4.05;100.00;21310.88;5072291;28;20261;-65
2022/12/24 03:08:05;;;;;;;107.23;47.77;;;;;;;4.03;100.00;19083.16;5072519;28;20604;-64
2022/12/24 03:10:41;;;;;;;94.70;50.87;;;;;;;4.00;100.00;14951.06;5072924;28;20524;-64
2022/12/24 03:13:14;;;;;;;94.53;51.80;;;;;;;4.06;100.00;11143.62;5073892;28;20272;-64
2022/12/24 03:15:42;;;;;;;101.87;54.27;;;;;;;4.13;100.00;8924.97;5073468;28;20196;-64
2022/12/24 03:18:13;;;;;;;95.33;53.40;;;;;;;4.17;100.00;7974.53;5073711;28;20582;-64
2022/12/24 03:20:44;;;;;;;93.70;53.07;;;;;;;4.21;100.00;7658.25;5073728;28;20185;-64
2022/12/24 03:23:11;;;;;;;91.93;53.10;;;;;;;4.33;100.00;7977.31;5073865;28;20571;-64
2022/12/24 03:25:42;;;;;;;100.23;53.93;;;;;;;4.41;100.00;7978.78;5073079;28;20616;-66
2022/12/24 03:28:12;;;;;;;96.10;52.50;;;;;;;4.32;100.00;8294.22;5072140;28;20243;-65
2022/12/24 03:30:39;;;;;;;94.40;52.90;;;;;;;4.56;100.00;9250.53;5071921;28;20185;-64
2022/12/24 03:33:06;;;;;;;87.97;46.63;;;;;;;4.18;100.00;16624.28;5071643;28;20563;-65
2022/12/24 03:35:35;;;;;;;81.40;46.37;;;;;;;4.35;100.00;22021.50;5071979;28;20524;-65
2022/12/24 03:38:01;;;;;;;80.03;45.87;;;;;;;4.38;100.00;21005.31;5072083;28;20205;-64
2022/12/24 03:40:28;;;;;;;79.67;46.47;;;;;;;4.43;100.00;16724.28;5071510;28;20189;-64
2022/12/24 03:42:55;;;;;;;83.13;47.83;;;;;;;4.50;100.00;12741.38;5071425;28;20188;-64
2022/12/24 03:45:22;;;;;;;84.43;47.53;;;;;;;4.53;100.00;10519.41;5071434;28;20199;-65
2022/12/24 03:47:49;;;;;;;80.07;46.50;;;;;;;4.59;100.00;9251.13;5071388;28;20185;-64
2022/12/24 03:50:16;;;;;;;85.63;47.07;;;;;;;4.51;100.00;8297.84;5071400;28;20189;-65
2022/12/24 03:52:44;;;;;;;85.83;47.50;;;;;;;4.63;100.00;7665.53;5071559;28;20544;-64
2022/12/24 03:55:11;;;;;;;85.47;48.83;;;;;;;4.65;100.00;7031.50;5071567;28;20685;-65
2022/12/24 03:57:40;;;;;;;87.50;46.33;;;;;;;4.60;100.00;6713.56;5071183;28;20204;-63
2022/12/24 04:00:08;;;;;;;80.77;44.50;;;;;;;4.78;100.00;6716.34;5070237;28;20185;-64
2022/12/24 04:02:35;;;;;;;81.03;45.40;;;;;;;4.84;100.00;6717.41;5071190;28;20215;-65
2022/12/24 04:05:02;;;;;;;71.00;42.63;;;;;;;4.90;100.00;6401.03;5071358;28;20619;-64
2022/12/24 04:07:28;;;;;;;77.53;42.33;;;;;;;4.96;100.00;6402.03;5071162;28;20200;-64
2022/12/24 04:09:57;;;;;;;74.33;41.23;;;;;;;5.06;100.00;6086.22;5071479;28;20195;-63
2022/12/24 04:12:23;;;;;;;69.50;40.63;;;;;;;4.96;100.00;8306.16;5071359;28;20548;-65
2022/12/24 04:14:50;;;;;;;67.00;38.70;;;;;;;5.03;100.00;12963.78;5071439;28;20548;-65
2022/12/24 04:17:18;;;;;;;64.27;39.27;;;;;;;4.94;100.00;22593.50;5071342;28;20188;-63
2022/12/24 04:19:44;;;;;;;64.57;38.50;;;;;;;4.76;100.00;26639.69;5071001;28;20200;-64
2022/12/24 04:22:14;;;;;;;65.33;37.33;;;;;;;4.78;100.00;23650.38;5071175;28;20594;-65
2022/12/24 04:24:41;;;;;;;64.23;37.33;;;;;;;4.68;100.00;21343.19;5071226;28;20585;-65
2022/12/24 04:27:09;;;;;;;55.47;34.97;;;;;;;4.54;100.00;21967.13;5071071;28;20610;-64
2022/12/24 04:29:36;;;;;;;66.40;38.30;;;;;;;4.57;100.00;21331.31;5071245;28;20184;-64
2022/12/24 04:32:03;;;;;;;58.30;35.70;;;;;;;4.42;100.00;21643.91;5071070;28;20207;-64
2022/12/24 04:34:30;;;;;;;66.80;38.23;;;;;;;4.28;100.00;21319.69;5071114;28;20537;-63
2022/12/24 04:36:57;;;;;;;67.13;38.10;;;;;;;4.25;100.00;18773.06;5071518;28;20196;-65
2022/12/24 04:39:23;;;;;;;64.10;37.60;;;;;;;4.05;100.00;18130.19;5071075;28;20694;-65
2022/12/24 04:41:50;;;;;;;63.73;36.00;;;;;;;4.04;100.00;17811.94;5070762;28;20188;-64
2022/12/24 04:44:18;;;;;;;62.87;35.40;;;;;;;3.81;100.00;20347.13;5071042;28;20189;-63
2022/12/24 04:46:45;;;;;;;61.13;36.63;;;;;;;3.83;100.00;20983.97;5070707;28;20192;-64
2022/12/24 04:49:12;;;;;;;67.17;37.93;;;;;;;3.94;100.00;15902.09;5070949;28;20219;-64
2022/12/24 04:51:39;;;;;;;68.50;38.20;;;;;;;4.04;100.00;11143.16;5070785;28;20188;-64
2022/12/24 04:54:06;;;;;;;69.87;41.53;;;;;;;4.10;100.00;7656.41;5070688;28;20184;-63
2022/12/24 04:56:33;;;;;;;75.50;42.20;;;;;;;4.16;100.00;4805.84;5071251;28;20274;-63
2022/12/24 04:59:01;;;;;;;80.13;43.53;;;;;;;4.26;100.00;3857.09;5070907;28;20232;-64
2022/12/24 05:01:31;;;;;;;79.60;43.23;;;;;;;4.38;100.00;3225.09;5071075;28;20200;-64
2022/12/24 05:03:59;;;;;;;76.17;42.83;;;;;;;4.43;100.00;3225.59;5070766;28;20196;-64
2022/12/24 05:06:29;;;;;;;74.27;41.67;;;;;;;4.55;100.00;3226.78;5070614;28;20191;-64
2022/12/24 05:09:00;;;;;;;80.13;43.47;;;;;;;4.63;100.00;4178.09;5070969;28;20555;-64
2022/12/24 05:11:27;;;;;;;77.00;41.43;;;;;;;4.56;100.00;6078.81;5070716;28;20196;-64
2022/12/24 05:13:54;;;;;;;67.10;39.40;;;;;;;4.50;100.00;13404.16;5071877;28;20188;-64
2022/12/24 05:16:22;;;;;;;71.83;40.60;;;;;;;4.53;100.00;14787.63;5074525;28;20185;-64
2022/12/24 05:18:51;;;;;;;73.40;40.73;;;;;;;4.49;100.00;14975.19;5074366;28;20556;-64
2022/12/24 05:21:20;;;;;;;71.63;42.20;;;;;;;4.39;100.00;15597.91;5074038;28;20188;-64
2022/12/24 05:26:34;;;;;;;64.63;39.53;;;;;;;4.49;100.00;16872.81;5074248;28;20195;-63
2022/12/24 05:29:02;;;;;;;77.50;40.97;;;;;;;4.42;100.00;15916.72;5074157;28;20176;-64
2022/12/24 05:31:32;;;;;;;74.43;40.20;;;;;;;4.39;100.00;15598.06;5074312;28;20185;-65
2022/12/24 05:34:02;;;;;;;67.10;38.17;;;;;;;4.37;100.00;14961.84;5073808;28;20184;-64
2022/12/24 05:36:29;;;;;;;78.63;41.40;;;;;;;4.21;100.00;16227.97;5074191;28;20204;-63
2022/12/24 05:38:55;;;;;;;69.07;38.57;;;;;;;4.33;100.00;14325.06;5072785;28;20307;-64
2022/12/24 05:41:23;;;;;;;71.60;40.87;;;;;;;4.35;100.00;13055.19;5073662;28;20192;-65
2022/12/24 05:43:50;;;;;;;76.00;40.17;;;;;;;4.22;100.00;12734.28;5073779;28;20185;-65
2022/12/24 05:46:20;;;;;;;71.77;39.07;;;;;;;4.18;100.00;14320.94;5073914;28;20193;-64
2022/12/24 05:48:47;;;;;;;69.07;39.30;;;;;;;4.24;100.00;14322.66;5073465;28;20199;-64
2022/12/24 05:51:18;;;;;;;72.37;40.33;;;;;;;4.21;100.00;16227.97;5072380;28;20185;-64
2022/12/24 05:53:46;;;;;;;69.23;39.43;;;;;;;4.18;100.00;16544.84;5073672;28;20189;-65
2022/12/24 05:56:17;;;;;;;67.63;39.43;;;;;;;3.75;100.00;18437.34;5073558;28;20184;-65
2022/12/24 05:58:44;;;;;;;72.07;39.87;;;;;;;3.95;100.00;13679.59;5073560;28;20683;-63
2022/12/24 06:01:12;;;;;;;73.93;40.23;;;;;;;4.14;100.00;11462.66;5073289;28;20181;-64
2022/12/24 06:03:38;;;;;;;69.73;38.87;;;;;;;4.28;100.00;10513.97;5073233;28;20184;-64
2022/12/24 06:06:07;;;;;;;69.07;38.47;;;;;;;4.24;100.00;11782.31;5073129;28;20188;-64
2022/12/24 06:08:37;;;;;;;70.77;38.67;;;;;;;4.50;100.00;11788.75;5073097;28;20189;-63
2022/12/24 06:11:07;;;;;;;73.73;38.37;;;;;;;4.67;100.00;9887.56;5073283;28;20188;-64
2022/12/24 06:13:34;;;;;;;65.90;37.83;;;;;;;5.06;100.00;11166.69;5073439;28;20185;-64
2022/12/24 06:16:03;;;;;;;50.60;31.60;;;;;;;5.22;100.00;13714.06;5073208;28;20189;-64
2022/12/24 06:18:31;;;;;;;47.97;30.47;;;;;;;5.51;100.00;22325.88;5073517;28;20208;-64
2022/12/24 06:20:58;;;;;;;46.10;29.50;;;;;;;5.98;100.00;28098.00;5072937;28;20219;-64
2022/12/24 06:23:26;;;;;;;58.80;35.63;;;;;;;6.55;100.00;27806.56;5073176;28;20264;-64
2022/12/24 06:25:56;;;;;;;46.00;29.20;;;;;;;6.87;100.00;64213.66;5071755;28;20276;-64
2022/12/24 06:28:23;;;;;;;48.27;27.80;;;;;;;7.43;100.00;108306.22;5072850;28;20667;-64
2022/12/24 06:30:50;;;;;;;45.50;28.83;;;;;;;8.11;100.00;122260.13;5073094;28;20564;-64
2022/12/24 06:33:19;;;;;;;52.93;30.87;;;;;;;8.72;100.00;147625.31;5072966;28;20572;-65
2022/12/24 06:35:46;;;;;;;43.63;31.07;;;;;;;9.18;100.00;148350.88;5073042;28;20642;-64
2022/12/24 06:38:13;;;;;;;50.00;31.03;;;;;;;9.29;100.00;148377.41;5072867;28;20497;-65
2022/12/24 06:40:42;;;;;;;44.40;28.10;;;;;;;9.28;100.00;148374.88;5072482;28;20192;-63
2022/12/24 06:43:11;;;;;;;43.47;28.40;;;;;;;9.40;100.00;148405.16;5072450;28;20188;-64
2022/12/24 06:45:38;;;;;;;43.60;28.53;;;;;;;9.63;100.00;148463.28;5072514;28;20189;-64
2022/12/24 06:48:06;;;;;;;41.03;27.87;;;;;;;9.93;100.00;148537.81;5072661;28;20185;-64
2022/12/24 06:50:33;;;;;;;40.53;27.23;;;;;;;10.32;100.00;148635.13;5072549;28;20181;-65
2022/12/24 06:53:01;;;;;;;41.27;28.77;;;;;;;10.40;100.00;148656.59;5072619;28;20264;-65
2022/12/24 06:55:28;;;;;;;41.33;27.27;;;;;;;10.56;100.00;148694.56;5072320;28;20286;-64
2022/12/24 06:57:56;;;;;;;45.30;28.30;;;;;;;10.73;100.00;148737.53;5072294;28;20188;-65
2022/12/24 07:00:24;;;;;;;44.87;28.20;;;;;;;10.50;100.00;148681.91;5072423;28;20208;-64
2022/12/24 07:02:51;;;;;;;38.63;28.27;;;;;;;11.37;100.00;148899.34;5072496;28;20637;-64
2022/12/24 07:05:18;;;;;;;34.97;25.23;;;;;;;11.69;100.00;148979.06;5070765;28;20197;-65
2022/12/24 07:07:45;;;;;;;37.00;25.80;;;;;;;12.18;100.00;149100.56;5072323;28;20574;-66
2022/12/24 07:10:15;;;;;;;30.23;24.43;;;;;;;12.01;100.00;149057.59;5072441;28;20192;-64
2022/12/24 07:12:42;;;;;;;28.97;24.10;;;;;;;12.01;100.00;149057.59;5072102;28;20196;-65
2022/12/24 07:15:10;;;;;;;29.57;23.73;;;;;;;12.34;100.00;149142.41;5072380;28;20180;-65
2022/12/24 07:17:39;;;;;;;26.33;23.40;;;;;;;13.23;100.00;149365.28;5072203;28;20181;-65
2022/12/24 07:20:08;;;;;;;26.73;23.43;;;;;;;13.62;100.00;149461.59;5072010;28;20219;-65
2022/12/24 07:22:35;;;;;;;30.00;23.37;;;;;;;14.30;100.00;149632.63;5071782;28;20181;-65
2022/12/24 07:25:02;;;;;;;24.40;21.13;;;;;;;14.56;100.00;149697.34;5072044;28;20563;-64
2022/12/24 07:27:30;;;;;;;27.13;21.27;;;;;;;15.34;100.00;149893.97;5071694;28;20259;-65
2022/12/24 07:29:57;;;;;;;23.10;20.37;;;;;;;15.24;100.00;149868.59;5071683;28;20185;-64
2022/12/24 07:32:23;;;;;;;22.90;20.47;;;;;;;15.82;100.00;150013.31;5072004;28;20192;-65
2022/12/24 07:34:52;;;;;;;26.47;22.20;;;;;;;16.10;100.00;150083.09;5071911;28;20189;-64
2022/12/24 07:37:18;;;;;;;23.67;21.13;;;;;;;15.97;100.00;150052.66;5071932;28;20200;-64
2022/12/24 07:39:45;;;;;;;23.93;21.53;;;;;;;16.29;100.00;150132.66;5071928;28;20209;-64
2022/12/24 07:42:12;;;;;;;31.73;23.37;;;;;;;16.73;100.00;150241.88;5071375;28;20208;-65
2022/12/24 07:44:39;;;;;;;25.47;22.10;;;;;;;16.80;100.00;150260.91;5071839;28;20189;-64
2022/12/24 07:47:06;;;;;;;25.73;22.70;;;;;;;17.27;100.00;150379.06;5071595;28;20189;-64
2022/12/24 07:49:33;;;;;;;27.73;23.87;;;;;;;17.09;100.00;150332.06;5071297;28;20185;-63
2022/12/24 07:52:02;;;;;;;28.03;23.77;;;;;;;17.70;100.00;150487.13;5071791;28;20499;-65
2022/12/24 07:54:29;;;;;;;30.23;23.50;;;;;;;16.99;100.00;150307.94;5071730;28;20199;-64
2022/12/24 07:56:55;;;;;;;27.10;23.43;;;;;;;16.98;100.00;150305.38;5071395;28;20185;-64
2022/12/24 07:59:22;;;;;;;29.03;24.00;;;;;;;17.66;100.00;150476.97;5071526;28;20215;-64
2022/12/24 08:01:49;;;;;;;27.47;24.23;;;;;;;17.80;100.00;150512.56;5071348;28;20188;-64
2022/12/24 08:04:16;;;;;;;25.87;23.13;;;;;;;18.43;100.00;150670.22;5071425;28;20181;-64
2022/12/24 08:06:43;;;;;;;26.40;23.33;;;;;;;19.18;96.33;150859.75;5072072;28;20185;-65
2022/12/24 08:09:13;;;;;;;26.65;23.58;;;;;;;20.28;88.42;151136.06;5071954;28;20181;-65
2022/12/24 08:11:40;;;;;;;29.23;24.03;;;;;;;19.96;87.43;151054.56;5071422;28;20188;-64
2022/12/24 08:14:07;;;;;;;29.05;24.80;;;;;;;20.74;85.30;151250.72;5071262;28;20181;-64
2022/12/24 08:16:33;;;;;;;27.92;24.98;;;;;;;21.41;76.36;151421.50;5071580;28;20647;-65
2022/12/24 08:19:00;;;;;;;25.90;23.00;;;;;;;21.09;79.85;151339.84;5071217;28;20209;-65
2022/12/24 08:21:27;;;;;;;29.15;23.48;;;;;;;21.42;76.60;151422.75;5071069;28;20188;-65
2022/12/24 08:23:54;;;;;;;26.70;23.15;;;;;;;21.16;77.41;151356.50;5071160;28;20234;-65
2022/12/24 08:26:22;;;;;;;28.38;22.75;;;;;;;20.38;80.49;151161.56;5071446;28;20215;-65
2022/12/24 08:28:49;;;;;;;24.88;22.38;;;;;;;19.85;87.90;151026.56;5071398;28;20524;-64
2022/12/24 08:31:16;;;;;;;27.63;23.10;;;;;;;20.12;87.21;151095.28;5071335;28;20670;-64
2022/12/24 08:33:43;;;;;;;25.48;22.77;;;;;;;20.64;82.10;151226.50;5071103;28;20189;-64
2022/12/24 08:36:10;;;;;;;27.55;23.75;;;;;;;20.95;80.86;151305.50;5070071;28;20200;-64
2022/12/24 08:38:36;;;;;;;28.58;24.17;;;;;;;20.83;81.12;151273.66;5071025;28;20277;-64
2022/12/24 08:41:03;;;;;;;25.73;22.95;;;;;;;20.37;84.38;151157.72;5071362;28;20647;-65
2022/12/24 08:43:32;;;;;;;26.05;23.13;;;;;;;20.45;85.57;151178.13;5071004;28;20185;-64
2022/12/24 08:46:04;;;;;;;26.80;23.70;;;;;;;20.44;83.39;151175.56;5070901;28;20185;-64
2022/12/24 08:48:31;;;;;;;27.85;24.63;;;;;;;21.60;79.01;151468.59;5071800;28;20656;-65
2022/12/24 08:50:58;;;;;;;30.92;24.65;;;;;;;23.03;67.90;151829.59;5075203;28;20545;-65
2022/12/24 08:53:25;;;;;;;26.35;23.80;;;;;;;22.70;66.63;151745.41;5075280;28;20628;-65
2022/12/24 08:55:51;;;;;;;30.65;23.90;;;;;;;22.62;68.43;151726.22;5075129;28;20189;-64
2022/12/24 08:58:18;;;;;;;26.75;24.02;;;;;;;22.66;69.19;151735.16;5075024;28;20185;-64
2022/12/24 09:00:47;;;;;;;26.67;23.42;;;;;;;22.55;69.87;151707.09;5074634;28;20219;-65
2022/12/24 09:03:15;;;;;;;23.25;20.70;;;;;;;22.01;73.49;151571.94;5074502;28;20200;-65
2022/12/24 09:05:42;;;;;;;23.50;20.45;;;;;;;21.82;75.40;151523.44;5074766;28;20624;-65
2022/12/24 09:08:09;;;;;;;22.35;19.75;;;;;;;21.80;75.26;151518.34;5074608;28;20184;-65
2022/12/24 09:10:36;;;;;;;21.77;19.67;;;;;;;22.03;73.86;151577.00;5074505;28;20189;-65
2022/12/24 09:13:03;;;;;;;23.20;19.40;;;;;;;22.77;70.07;151764.53;5074657;28;20580;-65
2022/12/24 09:15:29;;;;;;;22.38;19.17;;;;;;;23.45;67.94;151934.28;5074781;28;20192;-64
2022/12/24 09:17:58;;;;;;;20.80;17.83;;;;;;;23.23;66.54;151879.34;5074289;28;20185;-64
2022/12/24 09:20:25;;;;;;;18.52;16.80;;;;;;;23.86;64.00;152038.91;5074563;28;20666;-65
2022/12/24 09:22:51;;;;;;;20.73;16.17;;;;;;;24.20;61.18;152123.22;5074420;28;20192;-64
2022/12/24 09:25:19;;;;;;;18.00;16.40;;;;;;;24.47;57.94;152192.19;5074374;28;20189;-64
2022/12/24 09:27:45;;;;;;;18.20;16.33;;;;;;;24.73;57.76;152257.31;5072893;28;20232;-64
2022/12/24 09:30:14;;;;;;;17.60;16.27;;;;;;;24.98;56.07;152322.50;5074073;28;20185;-64
2022/12/24 09:32:40;;;;;;;19.33;17.30;;;;;;;25.22;56.32;152382.53;5074006;28;20188;-64
2022/12/24 09:35:09;;;;;;;17.67;16.08;;;;;;;25.84;54.46;152538.50;5074287;28;20555;-64
2022/12/24 09:37:37;;;;;;;16.15;14.85;;;;;;;24.52;57.67;152206.25;5074240;28;20662;-65
2022/12/24 09:40:05;;;;;;;17.17;15.65;;;;;;;25.05;56.62;152337.81;5074104;28;20212;-64
2022/12/24 09:42:44;;;;;;;16.83;15.32;;;;;;;24.97;55.80;152319.94;5073951;28;20195;-65
2022/12/24 09:45:18;;;;;;;18.02;16.17;;;;;;;24.37;57.90;152167.91;5072610;28;20678;-64
2022/12/24 09:47:50;;;;;;;19.50;15.63;;;;;;;24.62;57.33;152229.19;5074594;28;20185;-64
2022/12/24 09:50:31;;;;;;;17.38;15.77;;;;;;;25.46;55.52;152442.63;5074069;28;20627;-65
2022/12/24 09:53:01;;;;;;;17.80;16.27;;;;;;;24.95;55.96;152314.81;5073686;28;20193;-64
2022/12/24 09:55:32;;;;;;;16.25;15.05;;;;;;;24.90;56.96;152302.09;5073618;28;20185;-64
2022/12/24 09:58:02;;;;;;;16.30;14.95;;;;;;;24.41;58.11;152176.84;5073505;28;20189;-64
2022/12/24 10:00:33;;;;;;;14.43;13.50;;;;;;;25.25;54.47;152390.19;5073392;28;20275;-65
2022/12/24 10:02:59;;;;;;;14.88;13.77;;;;;;;27.00;50.89;152832.66;5073444;28;20181;-64
2022/12/24 10:05:38;;;;;;;16.08;14.20;;;;;;;25.93;51.79;152562.75;5073873;28;20192;-65
2022/12/24 10:08:14;;;;;;;18.05;16.15;;;;;;;25.37;54.41;152419.63;5072168;28;20188;-64
2022/12/24 10:10:51;;;;;;;18.10;14.65;;;;;;;26.56;51.03;152721.38;5072042;28;20219;-66
2022/12/24 10:13:28;;;;;;;13.93;12.93;;;;;;;27.22;49.60;152887.66;5073737;28;20726;-65
2022/12/24 10:16:02;;;;;;;12.65;11.82;;;;;;;27.96;47.61;153075.84;5073313;28;20216;-65
2022/12/24 10:18:38;;;;;;;12.60;11.52;;;;;;;29.39;43.50;153438.31;5073574;28;20567;-65
2022/12/24 10:21:14;;;;;;;16.50;14.95;;;;;;;28.59;43.94;153235.91;5073474;28;20615;-65
2022/12/24 10:23:48;;;;;;;20.27;16.60;;;;;;;28.70;43.10;153261.53;5073511;28;20544;-64
2022/12/24 10:26:23;;;;;;;19.95;16.77;;;;;;;28.18;44.78;153130.88;5073189;28;20208;-64
2022/12/24 10:28:53;;;;;;;12.18;11.35;;;;;;;26.70;47.80;152757.16;5073538;28;20223;-64
2022/12/24 10:31:25;;;;;;;12.45;11.45;;;;;;;25.31;52.83;152404.25;5073737;28;20575;-65
2022/12/24 10:33:57;;;;;;;12.13;11.02;;;;;;;25.81;52.54;152530.81;5072503;28;20200;-64
2022/12/24 10:36:28;;;;;;;12.85;11.93;;;;;;;24.43;56.98;152181.97;5074197;28;20607;-66
2022/12/24 10:38:56;;;;;;;12.02;11.40;;;;;;;24.09;60.47;152097.66;5073769;28;20195;-64
2022/12/24 10:41:25;;;;;;;12.65;11.68;;;;;;;24.41;60.17;152176.84;5073644;28;20537;-64
2022/12/24 10:43:53;;;;;;;16.63;14.93;;;;;;;24.35;59.35;152161.53;5073543;28;20189;-64
2022/12/24 10:46:23;;;;;;;14.52;13.32;;;;;;;24.77;58.63;152268.81;5072472;28;20615;-64
2022/12/24 10:48:55;;;;;;;12.45;11.55;;;;;;;23.70;60.64;151998.09;5071432;28;20181;-64
2022/12/24 10:51:33;;;;;;;12.18;11.57;;;;;;;22.01;72.16;151571.94;5073016;28;20235;-64
2022/12/24 10:54:06;;;;;;;12.90;12.00;;;;;;;21.85;75.24;151531.09;5072943;28;20184;-64
2022/12/24 10:56:40;;;;;;;15.85;14.40;;;;;;;20.97;85.74;151309.28;5072622;28;20184;-64
2022/12/24 10:59:23;;;;;;;14.52;13.55;;;;;;;19.98;94.93;151059.66;5072641;28;20669;-64
2022/12/24 11:01:50;;;;;;;14.02;12.68;;;;;;;20.13;96.51;151096.56;5072161;28;20195;-64
2022/12/24 11:04:19;;;;;;;13.88;12.82;;;;;;;20.02;95.89;151069.84;5072728;28;20655;-64
2022/12/24 11:06:56;;;;;;;13.60;12.75;;;;;;;19.82;97.84;151018.88;5072327;28;20191;-63
2022/12/24 11:09:25;;;;;;;14.25;13.10;;;;;;;20.85;92.46;151278.72;5072112;28;20188;-64
2022/12/24 11:11:52;;;;;;;13.93;12.73;;;;;;;21.24;85.57;151376.88;5071550;28;20191;-64
2022/12/24 11:14:21;;;;;;;12.80;11.65;;;;;;;21.57;83.16;151459.69;5072455;28;20211;-64
2022/12/24 11:16:53;;;;;;;18.65;15.95;;;;;;;21.53;82.89;151449.50;5071804;28;20200;-64
2022/12/24 11:19:30;;;;;;;27.70;18.92;;;;;;;21.80;81.02;151518.34;5072120;28;20239;-64
2022/12/24 11:22:05;;;;;;;23.90;17.48;;;;;;;22.68;76.08;151740.25;5072090;28;20188;-64
2022/12/24 11:24:34;;;;;;;15.25;13.63;;;;;;;22.87;72.82;151788.78;5071843;28;20223;-64
2022/12/24 11:27:37;;;;;;;12.25;10.95;;;;;;;23.53;66.64;151954.69;5071580;28;20229;-64